Temp: 3.9°C   Baro: 1036.3mb
  Wind: 2.0mph   Dir: W (273°)
  Rain: 0.0mm (0.0mm/hr)
  Solar: 0W/m2  Hum: 84%

Historic data

Bath Spa Weather Station Historical Data
Daily Summary for December 29, 2019 Units:  Both    English   Metric
Daily Weekly Monthly Yearly Custom
  High: Low: Average:
Temperature: 48 °F /  8.9 °C 44.2 °F /  6.8 °C 46.1 °F /  7.8 °C
Dew Point: 45 °F /  7.2 °C 41.5 °F /  5.3 °C 43.1 °F /  6.2 °C
Humidity: 94% 86% 89%
Wind Speed: 7.5mph /  12.1km/h - 3mph /  4.8km/h
Wind Gust: 14mph /  22.5km/h - -
Wind- - South
Pressure: 30.55 in /  1034.4 hPa 30.44 in /  1030.7 hPa -
Precipitation: 0.00 in /  0 mm    
Historical Graphs
 
 
Tabular Data for December 29, 2019
Time Temperature Dew Point Pressure Wind Wind Speed Wind Gust Humidity Rainfall Rate (Hourly) solar
00:09 46.5 °F /  8.1 °C 44.9 °F /  7.2 °C 30.55in /  1034.4hPa SSW 5.5mph /  8.9km/h 12mph /  19.3km/h 94% 0.00in /  0mm 0 W/m2
00:14 46.6 °F /  8.1 °C 45 °F /  7.2 °C 30.55in /  1034.4hPa SSW 2.6mph /  4.2km/h 11mph /  17.7km/h 94% 0.00in /  0mm 0 W/m2
00:19 46.6 °F /  8.1 °C 45 °F /  7.2 °C 30.55in /  1034.4hPa SSE 3.1mph /  5km/h 7mph /  11.3km/h 94% 0.00in /  0mm 0 W/m2
00:24 46.6 °F /  8.1 °C 45 °F /  7.2 °C 30.55in /  1034.4hPa South 3.7mph /  6km/h 7mph /  11.3km/h 94% 0.00in /  0mm 0 W/m2
00:29 46.6 °F /  8.1 °C 45 °F /  7.2 °C 30.55in /  1034.4hPa South 6.1mph /  9.8km/h 10mph /  16.1km/h 94% 0.00in /  0mm 0 W/m2
00:34 46.6 °F /  8.1 °C 45 °F /  7.2 °C 30.55in /  1034.4hPa South 3.4mph /  5.5km/h 8mph /  12.9km/h 94% 0.00in /  0mm 0 W/m2
00:39 46.6 °F /  8.1 °C 45 °F /  7.2 °C 30.55in /  1034.4hPa SSE 5.4mph /  8.7km/h 9mph /  14.5km/h 94% 0.00in /  0mm 0 W/m2
00:44 46.6 °F /  8.1 °C 45 °F /  7.2 °C 30.55in /  1034.4hPa SSE 5.6mph /  9km/h 10mph /  16.1km/h 94% 0.00in /  0mm 0 W/m2
00:49 46.6 °F /  8.1 °C 45 °F /  7.2 °C 30.55in /  1034.4hPa SSW 4mph /  6.4km/h 7mph /  11.3km/h 94% 0.00in /  0mm 0 W/m2
00:54 46.6 °F /  8.1 °C 45 °F /  7.2 °C 30.55in /  1034.4hPa SSE 1.3mph /  2.1km/h 5mph /  8km/h 94% 0.00in /  0mm 0 W/m2
00:59 46.6 °F /  8.1 °C 45 °F /  7.2 °C 30.55in /  1034.4hPa South 3.3mph /  5.3km/h 7mph /  11.3km/h 94% 0.00in /  0mm 0 W/m2
01:04 46.6 °F /  8.1 °C 45 °F /  7.2 °C 30.54in /  1034.1hPa South 4.7mph /  7.6km/h 7mph /  11.3km/h 94% 0.00in /  0mm 0 W/m2
01:09 46.6 °F /  8.1 °C 44.9 °F /  7.2 °C 30.54in /  1034.1hPa South 3.2mph /  5.1km/h 7mph /  11.3km/h 93.8% 0.00in /  0mm 0 W/m2
01:13 46.6 °F /  8.1 °C 44.6 °F /  7 °C 30.54in /  1034.1hPa SSE 2.2mph /  3.5km/h 6mph /  9.7km/h 93% 0.00in /  0mm 0 W/m2
01:19 46.5 °F /  8.1 °C 44.5 °F /  6.9 °C 30.54in /  1034.1hPa SSE 5.2mph /  8.4km/h 9mph /  14.5km/h 93% 0.00in /  0mm 0 W/m2
01:24 46.4 °F /  8 °C 44.4 °F /  6.9 °C 30.54in /  1034.1hPa SSE 4.7mph /  7.6km/h 8mph /  12.9km/h 93% 0.00in /  0mm 0 W/m2
01:29 46.2 °F /  7.9 °C 44.2 °F /  6.8 °C 30.54in /  1034.1hPa SSE 4.3mph /  6.9km/h 8mph /  12.9km/h 93% 0.00in /  0mm 0 W/m2
01:34 46.3 °F /  7.9 °C 44.3 °F /  6.8 °C 30.54in /  1034.1hPa South 2.5mph /  4km/h 6mph /  9.7km/h 93% 0.00in /  0mm 0 W/m2
01:39 46.3 °F /  7.9 °C 44.3 °F /  6.8 °C 30.54in /  1034.1hPa South 3.5mph /  5.6km/h 7mph /  11.3km/h 93% 0.00in /  0mm 0 W/m2
01:44 46.4 °F /  8 °C 44.4 °F /  6.9 °C 30.54in /  1034.1hPa SSE 3mph /  4.8km/h 6mph /  9.7km/h 93% 0.00in /  0mm 0 W/m2
01:49 46.4 °F /  8 °C 44.4 °F /  6.9 °C 30.54in /  1034.1hPa South 3.4mph /  5.5km/h 7mph /  11.3km/h 93% 0.00in /  0mm 0 W/m2
01:53 46.3 °F /  7.9 °C 44.3 °F /  6.8 °C 30.53in /  1033.7hPa South 4.5mph /  7.2km/h 8mph /  12.9km/h 93% 0.00in /  0mm 0 W/m2
01:59 46.3 °F /  7.9 °C 44.3 °F /  6.8 °C 30.54in /  1034.1hPa South 5.2mph /  8.4km/h 8mph /  12.9km/h 93% 0.00in /  0mm 0 W/m2
02:04 46.3 °F /  7.9 °C 44.3 °F /  6.8 °C 30.53in /  1033.7hPa SSE 5.3mph /  8.5km/h 8mph /  12.9km/h 93% 0.00in /  0mm 0 W/m2
02:09 46.2 °F /  7.9 °C 44.2 °F /  6.8 °C 30.54in /  1034.1hPa South 5.3mph /  8.5km/h 13mph /  20.9km/h 93% 0.00in /  0mm 0 W/m2
02:14 46.2 °F /  7.9 °C 44.2 °F /  6.8 °C 30.54in /  1034.1hPa South 6.5mph /  10.5km/h 13mph /  20.9km/h 93% 0.00in /  0mm 0 W/m2
02:19 46.2 °F /  7.9 °C 44.2 °F /  6.8 °C 30.54in /  1034.1hPa SSE 4.8mph /  7.7km/h 11mph /  17.7km/h 93% 0.00in /  0mm 0 W/m2
02:24 46.1 °F /  7.8 °C 44.2 °F /  6.8 °C 30.54in /  1034.1hPa SSE 3.3mph /  5.3km/h 11mph /  17.7km/h 93% 0.00in /  0mm 0 W/m2
02:29 46 °F /  7.8 °C 44.1 °F /  6.7 °C 30.54in /  1034.1hPa SSE 5.5mph /  8.9km/h 8mph /  12.9km/h 93% 0.00in /  0mm 0 W/m2
02:34 46 °F /  7.8 °C 44.1 °F /  6.7 °C 30.54in /  1034.1hPa SSE 5.2mph /  8.4km/h 11mph /  17.7km/h 93% 0.00in /  0mm 0 W/m2
02:39 46 °F /  7.8 °C 44.1 °F /  6.7 °C 30.54in /  1034.1hPa SSE 3.8mph /  6.1km/h 7mph /  11.3km/h 93% 0.00in /  0mm 0 W/m2
02:44 46 °F /  7.8 °C 44.1 °F /  6.7 °C 30.53in /  1033.7hPa South 4.4mph /  7.1km/h 7mph /  11.3km/h 93% 0.00in /  0mm 0 W/m2
02:49 46 °F /  7.8 °C 44.1 °F /  6.7 °C 30.53in /  1033.7hPa South 3.7mph /  6km/h 7mph /  11.3km/h 93% 0.00in /  0mm 0 W/m2
02:54 46 °F /  7.8 °C 44 °F /  6.7 °C 30.53in /  1033.7hPa South 5.2mph /  8.4km/h 9mph /  14.5km/h 92.6% 0.00in /  0mm 0 W/m2
02:59 46 °F /  7.8 °C 43.9 °F /  6.6 °C 30.53in /  1033.7hPa SSE 6.2mph /  10km/h 11mph /  17.7km/h 92.4% 0.00in /  0mm 0 W/m2
03:04 46 °F /  7.8 °C 43.8 °F /  6.6 °C 30.53in /  1033.7hPa SSW 6.5mph /  10.5km/h 10mph /  16.1km/h 92% 0.00in /  0mm 0 W/m2
03:09 46 °F /  7.8 °C 43.9 °F /  6.6 °C 30.53in /  1033.7hPa South 2.9mph /  4.7km/h 8mph /  12.9km/h 92% 0.00in /  0mm 0 W/m2
03:14 46 °F /  7.8 °C 43.7 °F /  6.5 °C 30.53in /  1033.7hPa SSW 3.7mph /  6km/h 7mph /  11.3km/h 91.6% 0.00in /  0mm 0 W/m2
03:19 46 °F /  7.8 °C 43.5 °F /  6.4 °C 30.53in /  1033.7hPa SSW 2.1mph /  3.4km/h 6mph /  9.7km/h 91% 0.00in /  0mm 0 W/m2
03:24 46 °F /  7.8 °C 43.5 °F /  6.4 °C 30.53in /  1033.7hPa SW 1.6mph /  2.6km/h 5mph /  8km/h 91% 0.00in /  0mm 0 W/m2
03:29 46 °F /  7.8 °C 43.5 °F /  6.4 °C 30.53in /  1033.7hPa South 2.6mph /  4.2km/h 6mph /  9.7km/h 91% 0.00in /  0mm 0 W/m2
03:34 46 °F /  7.8 °C 43.5 °F /  6.4 °C 30.52in /  1033.4hPa South 0.8mph /  1.3km/h 6mph /  9.7km/h 91% 0.00in /  0mm 0 W/m2
03:39 46 °F /  7.8 °C 43.5 °F /  6.4 °C 30.52in /  1033.4hPa SSW 1mph /  1.6km/h 3mph /  4.8km/h 91% 0.00in /  0mm 0 W/m2
03:44 46 °F /  7.8 °C 43.5 °F /  6.4 °C 30.52in /  1033.4hPa SSW 2.4mph /  3.9km/h 6mph /  9.7km/h 91% 0.00in /  0mm 0 W/m2
03:49 46 °F /  7.8 °C 43.5 °F /  6.4 °C 30.52in /  1033.4hPa South 2.9mph /  4.7km/h 6mph /  9.7km/h 91% 0.00in /  0mm 0 W/m2
03:54 46 °F /  7.8 °C 43.5 °F /  6.4 °C 30.52in /  1033.4hPa SW 3.3mph /  5.3km/h 7mph /  11.3km/h 91% 0.00in /  0mm 0 W/m2
03:59 45.9 °F /  7.7 °C 43.4 °F /  6.3 °C 30.52in /  1033.4hPa South 5.8mph /  9.3km/h 9mph /  14.5km/h 91% 0.00in /  0mm 0 W/m2
04:04 45.9 °F /  7.7 °C 43.3 °F /  6.3 °C 30.52in /  1033.4hPa South 5.9mph /  9.5km/h 10mph /  16.1km/h 90.8% 0.00in /  0mm 0 W/m2
04:09 46 °F /  7.8 °C 43.3 °F /  6.3 °C 30.52in /  1033.4hPa South 3.8mph /  6.1km/h 9mph /  14.5km/h 90% 0.00in /  0mm 0 W/m2
04:14 46 °F /  7.8 °C 43.3 °F /  6.3 °C 30.53in /  1033.7hPa South 4.5mph /  7.2km/h 10mph /  16.1km/h 90% 0.00in /  0mm 0 W/m2
04:19 46 °F /  7.8 °C 43.3 °F /  6.3 °C 30.53in /  1033.7hPa South 3.2mph /  5.1km/h 6mph /  9.7km/h 90% 0.00in /  0mm 0 W/m2
04:24 45.9 °F /  7.7 °C 43.2 °F /  6.2 °C 30.53in /  1033.7hPa South 4.4mph /  7.1km/h 7mph /  11.3km/h 90% 0.00in /  0mm 0 W/m2
04:29 45.9 °F /  7.7 °C 43.2 °F /  6.2 °C 30.53in /  1033.7hPa South 2.5mph /  4km/h 7mph /  11.3km/h 90% 0.00in /  0mm 0 W/m2
04:34 45.9 °F /  7.7 °C 43.2 °F /  6.2 °C 30.53in /  1033.7hPa SSW 2mph /  3.2km/h 7mph /  11.3km/h 90% 0.00in /  0mm 0 W/m2
04:39 45.9 °F /  7.7 °C 43.2 °F /  6.2 °C 30.53in /  1033.7hPa South 2.9mph /  4.7km/h 5mph /  8km/h 90% 0.00in /  0mm 0 W/m2
04:44 45.9 °F /  7.7 °C 43.2 °F /  6.2 °C 30.53in /  1033.7hPa SSW 3.2mph /  5.1km/h 6mph /  9.7km/h 90% 0.00in /  0mm 0 W/m2
04:49 45.9 °F /  7.7 °C 43.2 °F /  6.2 °C 30.53in /  1033.7hPa SSW 2.5mph /  4km/h 4mph /  6.4km/h 90% 0.00in /  0mm 0 W/m2
04:54 45.9 °F /  7.7 °C 43.2 °F /  6.2 °C 30.53in /  1033.7hPa South 3.2mph /  5.1km/h 4mph /  6.4km/h 90% 0.00in /  0mm 0 W/m2
04:59 45.9 °F /  7.7 °C 43.2 °F /  6.2 °C 30.52in /  1033.4hPa South 3mph /  4.8km/h 8mph /  12.9km/h 90% 0.00in /  0mm 0 W/m2
05:04 45.9 °F /  7.7 °C 43.2 °F /  6.2 °C 30.52in /  1033.4hPa South 3.2mph /  5.1km/h 8mph /  12.9km/h 90% 0.00in /  0mm 0 W/m2
05:09 45.9 °F /  7.7 °C 43.2 °F /  6.2 °C 30.52in /  1033.4hPa South 1.6mph /  2.6km/h 5mph /  8km/h 90% 0.00in /  0mm 0 W/m2
05:13 45.9 °F /  7.7 °C 43.2 °F /  6.2 °C 30.52in /  1033.4hPa South 2.5mph /  4km/h 6mph /  9.7km/h 90% 0.00in /  0mm 0 W/m2
05:19 46 °F /  7.8 °C 43.3 °F /  6.3 °C 30.52in /  1033.4hPa South 4.8mph /  7.7km/h 7mph /  11.3km/h 90% 0.00in /  0mm 0 W/m2
05:24 46 °F /  7.8 °C 43.3 °F /  6.3 °C 30.51in /  1033.1hPa South 4.4mph /  7.1km/h 9mph /  14.5km/h 90% 0.00in /  0mm 0 W/m2
05:29 46 °F /  7.8 °C 43.3 °F /  6.3 °C 30.51in /  1033.1hPa South 3.7mph /  6km/h 6mph /  9.7km/h 90% 0.00in /  0mm 0 W/m2
05:34 46 °F /  7.8 °C 43.3 °F /  6.3 °C 30.50in /  1032.7hPa SSE 3.3mph /  5.3km/h 8mph /  12.9km/h 90% 0.00in /  0mm 0 W/m2
05:39 46 °F /  7.8 °C 43.3 °F /  6.3 °C 30.51in /  1033.1hPa SSE 2.5mph /  4km/h 5mph /  8km/h 90% 0.00in /  0mm 0 W/m2
05:44 46 °F /  7.8 °C 43.3 °F /  6.3 °C 30.51in /  1033.1hPa South 3.2mph /  5.1km/h 7mph /  11.3km/h 90% 0.00in /  0mm 0 W/m2
05:49 46 °F /  7.8 °C 43.3 °F /  6.3 °C 30.51in /  1033.1hPa SSE 3.3mph /  5.3km/h 5mph /  8km/h 90% 0.00in /  0mm 0 W/m2
05:54 46 °F /  7.8 °C 43.3 °F /  6.3 °C 30.51in /  1033.1hPa South 3.6mph /  5.8km/h 6mph /  9.7km/h 90% 0.00in /  0mm 0 W/m2
05:59 46 °F /  7.8 °C 43.3 °F /  6.3 °C 30.51in /  1033.1hPa South 4.8mph /  7.7km/h 8mph /  12.9km/h 90% 0.00in /  0mm 0 W/m2
06:04 46 °F /  7.8 °C 43.3 °F /  6.3 °C 30.51in /  1033.1hPa South 4.5mph /  7.2km/h 9mph /  14.5km/h 90% 0.00in /  0mm 0 W/m2
06:09 45.9 °F /  7.7 °C 43.2 °F /  6.2 °C 30.51in /  1033.1hPa South 4.7mph /  7.6km/h 10mph /  16.1km/h 90% 0.00in /  0mm 0 W/m2
06:14 45.9 °F /  7.7 °C 43.1 °F /  6.2 °C 30.51in /  1033.1hPa South 4.1mph /  6.6km/h 7mph /  11.3km/h 89.8% 0.00in /  0mm 0 W/m2
06:19 45.9 °F /  7.7 °C 42.8 °F /  6 °C 30.51in /  1033.1hPa SSE 2.5mph /  4km/h 8mph /  12.9km/h 89% 0.00in /  0mm 0 W/m2
06:24 45.9 °F /  7.7 °C 42.8 °F /  6 °C 30.50in /  1032.7hPa South 3.6mph /  5.8km/h 8mph /  12.9km/h 89% 0.00in /  0mm 0 W/m2
06:29 45.9 °F /  7.7 °C 42.8 °F /  6 °C 30.50in /  1032.7hPa South 4.3mph /  6.9km/h 9mph /  14.5km/h 89% 0.00in /  0mm 0 W/m2
06:34 45.9 °F /  7.7 °C 42.8 °F /  6 °C 30.50in /  1032.7hPa South 6mph /  9.7km/h 10mph /  16.1km/h 89% 0.00in /  0mm 0 W/m2
06:39 45.9 °F /  7.7 °C 42.8 °F /  6 °C 30.50in /  1032.7hPa SSW 4.2mph /  6.8km/h 10mph /  16.1km/h 89% 0.00in /  0mm 0 W/m2
06:44 45.9 °F /  7.7 °C 42.8 °F /  6 °C 30.50in /  1032.7hPa South 4.3mph /  6.9km/h 10mph /  16.1km/h 89% 0.00in /  0mm 0 W/m2
06:49 45.9 °F /  7.7 °C 42.8 °F /  6 °C 30.50in /  1032.7hPa South 3.8mph /  6.1km/h 9mph /  14.5km/h 89% 0.00in /  0mm 0 W/m2
06:54 45.9 °F /  7.7 °C 42.8 °F /  6 °C 30.50in /  1032.7hPa South 5.1mph /  8.2km/h 11mph /  17.7km/h 89% 0.00in /  0mm 0 W/m2
06:59 45.9 °F /  7.7 °C 42.8 °F /  6 °C 30.50in /  1032.7hPa South 3.6mph /  5.8km/h 11mph /  17.7km/h 89% 0.00in /  0mm 0 W/m2
07:04 45.9 °F /  7.7 °C 42.8 °F /  6 °C 30.50in /  1032.7hPa South 1.9mph /  3.1km/h 4mph /  6.4km/h 89% 0.00in /  0mm 0 W/m2
07:09 45.9 °F /  7.7 °C 42.8 °F /  6 °C 30.50in /  1032.7hPa South 4.5mph /  7.2km/h 8mph /  12.9km/h 89% 0.00in /  0mm 0 W/m2
07:14 45.9 °F /  7.7 °C 42.8 °F /  6 °C 30.49in /  1032.4hPa South 4.4mph /  7.1km/h 7mph /  11.3km/h 89% 0.00in /  0mm 0 W/m2
07:19 45.9 °F /  7.7 °C 42.8 °F /  6 °C 30.49in /  1032.4hPa South 4.1mph /  6.6km/h 7mph /  11.3km/h 89% 0.00in /  0mm 0 W/m2
07:24 45.9 °F /  7.7 °C 42.8 °F /  6 °C 30.49in /  1032.4hPa South 2.4mph /  3.9km/h 7mph /  11.3km/h 89% 0.00in /  0mm 0 W/m2
07:28 45.9 °F /  7.7 °C 42.8 °F /  6 °C 30.49in /  1032.4hPa SSE 2.2mph /  3.5km/h 5mph /  8km/h 89% 0.00in /  0mm 0 W/m2
07:34 45.9 °F /  7.7 °C 42.8 °F /  6 °C 30.49in /  1032.4hPa SSW 2.1mph /  3.4km/h 7mph /  11.3km/h 89% 0.00in /  0mm 0 W/m2
07:39 45.9 °F /  7.7 °C 42.8 °F /  6 °C 30.49in /  1032.4hPa South 2.8mph /  4.5km/h 5mph /  8km/h 89% 0.00in /  0mm 0 W/m2
07:44 45.9 °F /  7.7 °C 42.8 °F /  6 °C 30.49in /  1032.4hPa South 2.1mph /  3.4km/h 5mph /  8km/h 89% 0.00in /  0mm 0 W/m2
07:49 45.9 °F /  7.7 °C 42.8 °F /  6 °C 30.49in /  1032.4hPa South 3.6mph /  5.8km/h 7mph /  11.3km/h 89% 0.00in /  0mm 0 W/m2
07:54 46 °F /  7.8 °C 43 °F /  6.1 °C 30.49in /  1032.4hPa South 1.7mph /  2.7km/h 6mph /  9.7km/h 89% 0.00in /  0mm 0 W/m2
07:59 46 °F /  7.8 °C 43 °F /  6.1 °C 30.49in /  1032.4hPa SSE 4.8mph /  7.7km/h 8mph /  12.9km/h 89% 0.00in /  0mm 0 W/m2
08:04 46 °F /  7.8 °C 43 °F /  6.1 °C 30.50in /  1032.7hPa South 2.1mph /  3.4km/h 8mph /  12.9km/h 89% 0.00in /  0mm 0 W/m2
08:09 46 °F /  7.8 °C 43 °F /  6.1 °C 30.50in /  1032.7hPa South 1.2mph /  1.9km/h 4mph /  6.4km/h 89% 0.00in /  0mm 0 W/m2
08:14 46 °F /  7.8 °C 43 °F /  6.1 °C 30.50in /  1032.7hPa South 2.4mph /  3.9km/h 4mph /  6.4km/h 89% 0.00in /  0mm 0 W/m2
08:19 46 °F /  7.8 °C 43 °F /  6.1 °C 30.50in /  1032.7hPa SSW 2.4mph /  3.9km/h 7mph /  11.3km/h 89% 0.00in /  0mm 0 W/m2
08:24 46.2 °F /  7.9 °C 43.3 °F /  6.3 °C 30.50in /  1032.7hPa South 2.5mph /  4km/h 6mph /  9.7km/h 89.5% 0.00in /  0mm 0 W/m2
08:29 46.2 °F /  7.9 °C 43.3 °F /  6.3 °C 30.50in /  1032.7hPa SSW 4.1mph /  6.6km/h 7mph /  11.3km/h 89.4% 0.00in /  0mm 0 W/m2
08:34 46.2 °F /  7.9 °C 43.4 °F /  6.3 °C 30.50in /  1032.7hPa SSW 3.7mph /  6km/h 8mph /  12.9km/h 89.8% 0.00in /  0mm 0 W/m2
08:39 46.2 °F /  7.9 °C 43.5 °F /  6.4 °C 30.51in /  1033.1hPa South 2.8mph /  4.5km/h 7mph /  11.3km/h 90% 0.00in /  0mm 5 W/m2
08:44 46.2 °F /  7.9 °C 43.5 °F /  6.4 °C 30.51in /  1033.1hPa South 3.3mph /  5.3km/h 6mph /  9.7km/h 90% 0.00in /  0mm 5 W/m2
08:49 46.2 °F /  7.9 °C 43.5 °F /  6.4 °C 30.50in /  1032.7hPa South 3.1mph /  5km/h 6mph /  9.7km/h 90% 0.00in /  0mm 7 W/m2
08:54 46.2 °F /  7.9 °C 43.4 °F /  6.3 °C 30.50in /  1032.7hPa SSW 3.2mph /  5.1km/h 6mph /  9.7km/h 89.6% 0.00in /  0mm 11 W/m2
08:59 46.2 °F /  7.9 °C 43.2 °F /  6.2 °C 30.50in /  1032.7hPa SSW 4.5mph /  7.2km/h 9mph /  14.5km/h 89% 0.00in /  0mm 12 W/m2
09:04 46.2 °F /  7.9 °C 43.2 °F /  6.2 °C 30.50in /  1032.7hPa South 5.8mph /  9.3km/h 10mph /  16.1km/h 89% 0.00in /  0mm 14 W/m2
09:09 46.2 °F /  7.9 °C 43.2 °F /  6.2 °C 30.50in /  1032.7hPa South 3.1mph /  5km/h 10mph /  16.1km/h 89% 0.00in /  0mm 16 W/m2
09:14 46.2 °F /  7.9 °C 43.2 °F /  6.2 °C 30.50in /  1032.7hPa SSW 2.5mph /  4km/h 7mph /  11.3km/h 89% 0.00in /  0mm 18 W/m2
09:19 46.2 °F /  7.9 °C 43.2 °F /  6.2 °C 30.50in /  1032.7hPa South 3.7mph /  6km/h 5mph /  8km/h 89% 0.00in /  0mm 21 W/m2
09:24 46.3 °F /  7.9 °C 43.3 °F /  6.3 °C 30.50in /  1032.7hPa SSE 1.8mph /  2.9km/h 5mph /  8km/h 89% 0.00in /  0mm 21 W/m2
09:29 46.3 °F /  7.9 °C 43.3 °F /  6.3 °C 30.50in /  1032.7hPa South 4.4mph /  7.1km/h 6mph /  9.7km/h 89% 0.00in /  0mm 28 W/m2
09:34 46.2 °F /  7.9 °C 43.2 °F /  6.2 °C 30.50in /  1032.7hPa South 1.9mph /  3.1km/h 6mph /  9.7km/h 89% 0.00in /  0mm 35 W/m2
09:39 46.3 °F /  7.9 °C 43.3 °F /  6.3 °C 30.50in /  1032.7hPa SSW 2.1mph /  3.4km/h 7mph /  11.3km/h 89% 0.00in /  0mm 37 W/m2
09:44 46.3 °F /  7.9 °C 43.3 °F /  6.3 °C 30.50in /  1032.7hPa South 7.5mph /  12.1km/h 10mph /  16.1km/h 89% 0.00in /  0mm 42 W/m2
09:49 46.2 °F /  7.9 °C 43.2 °F /  6.2 °C 30.50in /  1032.7hPa South 7mph /  11.3km/h 13mph /  20.9km/h 89% 0.00in /  0mm 51 W/m2
09:54 46.2 °F /  7.9 °C 42.9 °F /  6.1 °C 30.50in /  1032.7hPa South 7.1mph /  11.4km/h 14mph /  22.5km/h 88.2% 0.00in /  0mm 54 W/m2
09:59 46.4 °F /  8 °C 43 °F /  6.1 °C 30.50in /  1032.7hPa South 2.4mph /  3.9km/h 6mph /  9.7km/h 88% 0.00in /  0mm 58 W/m2
10:04 46.6 °F /  8.1 °C 43.2 °F /  6.2 °C 30.50in /  1032.7hPa SSW 3.2mph /  5.1km/h 8mph /  12.9km/h 88% 0.00in /  0mm 62 W/m2
10:09 46.6 °F /  8.1 °C 43.2 °F /  6.2 °C 30.50in /  1032.7hPa South 4.4mph /  7.1km/h 9mph /  14.5km/h 88% 0.00in /  0mm 58 W/m2
10:14 46.6 °F /  8.1 °C 43.2 °F /  6.2 °C 30.50in /  1032.7hPa SSW 3.3mph /  5.3km/h 8mph /  12.9km/h 88% 0.00in /  0mm 53 W/m2
10:18 46.6 °F /  8.1 °C 43.2 °F /  6.2 °C 30.50in /  1032.7hPa SW 3.2mph /  5.1km/h 8mph /  12.9km/h 88% 0.00in /  0mm 46 W/m2
10:24 46.7 °F /  8.2 °C 43.2 °F /  6.2 °C 30.50in /  1032.7hPa South 2.8mph /  4.5km/h 7mph /  11.3km/h 88% 0.00in /  0mm 58 W/m2
10:29 46.7 °F /  8.2 °C 43.3 °F /  6.3 °C 30.50in /  1032.7hPa SSW 3.6mph /  5.8km/h 7mph /  11.3km/h 88% 0.00in /  0mm 67 W/m2
10:34 46.8 °F /  8.2 °C 43.3 °F /  6.3 °C 30.50in /  1032.7hPa SW 4.6mph /  7.4km/h 9mph /  14.5km/h 88% 0.00in /  0mm 74 W/m2
10:39 46.8 °F /  8.2 °C 43.3 °F /  6.3 °C 30.50in /  1032.7hPa SSW 2.9mph /  4.7km/h 9mph /  14.5km/h 88% 0.00in /  0mm 86 W/m2
10:44 46.8 °F /  8.2 °C 43.3 °F /  6.3 °C 30.50in /  1032.7hPa SW 3.1mph /  5km/h 7mph /  11.3km/h 88% 0.00in /  0mm 98 W/m2
10:49 46.8 °F /  8.2 °C 43.3 °F /  6.3 °C 30.50in /  1032.7hPa SSW 2.9mph /  4.7km/h 5mph /  8km/h 88% 0.00in /  0mm 105 W/m2
10:54 46.9 °F /  8.3 °C 43.4 °F /  6.3 °C 30.50in /  1032.7hPa SSW 2.1mph /  3.4km/h 4mph /  6.4km/h 88% 0.00in /  0mm 91 W/m2
10:59 46.9 °F /  8.3 °C 43.5 °F /  6.4 °C 30.50in /  1032.7hPa SW 3.4mph /  5.5km/h 7mph /  11.3km/h 88% 0.00in /  0mm 125 W/m2
11:04 46.9 °F /  8.3 °C 43.5 °F /  6.4 °C 30.50in /  1032.7hPa SSW 2.5mph /  4km/h 8mph /  12.9km/h 88% 0.00in /  0mm 137 W/m2
11:09 46.9 °F /  8.3 °C 43.5 °F /  6.4 °C 30.50in /  1032.7hPa South 3mph /  4.8km/h 8mph /  12.9km/h 88% 0.00in /  0mm 116 W/m2
11:14 47.1 °F /  8.4 °C 43.7 °F /  6.5 °C 30.50in /  1032.7hPa South 2.9mph /  4.7km/h 7mph /  11.3km/h 88% 0.00in /  0mm 90 W/m2
11:19 47.1 °F /  8.4 °C 43.7 °F /  6.5 °C 30.50in /  1032.7hPa SSE 2.7mph /  4.3km/h 8mph /  12.9km/h 88% 0.00in /  0mm 91 W/m2
11:24 47.1 °F /  8.4 °C 43.7 °F /  6.5 °C 30.50in /  1032.7hPa SSW 2.1mph /  3.4km/h 7mph /  11.3km/h 87.8% 0.00in /  0mm 114 W/m2
11:29 47.1 °F /  8.4 °C 43.5 °F /  6.4 °C 30.50in /  1032.7hPa SW 2.8mph /  4.5km/h 7mph /  11.3km/h 87.2% 0.00in /  0mm 102 W/m2
11:34 47.1 °F /  8.4 °C 43.5 °F /  6.4 °C 30.50in /  1032.7hPa SSW 5.3mph /  8.5km/h 9mph /  14.5km/h 87% 0.00in /  0mm 100 W/m2
11:39 47.2 °F /  8.4 °C 43.6 °F /  6.4 °C 30.50in /  1032.7hPa SSW 5.6mph /  9km/h 11mph /  17.7km/h 87% 0.00in /  0mm 77 W/m2
11:44 47.2 °F /  8.4 °C 43.6 °F /  6.4 °C 30.50in /  1032.7hPa SSW 4.9mph /  7.9km/h 9mph /  14.5km/h 87% 0.00in /  0mm 56 W/m2
11:49 47.3 °F /  8.5 °C 43.8 °F /  6.6 °C 30.50in /  1032.7hPa South 2.5mph /  4km/h 8mph /  12.9km/h 87% 0.00in /  0mm 60 W/m2
11:54 47.3 °F /  8.5 °C 43.7 °F /  6.5 °C 30.50in /  1032.7hPa South 5.6mph /  9km/h 8mph /  12.9km/h 87% 0.00in /  0mm 67 W/m2
11:59 47.2 °F /  8.4 °C 43.6 °F /  6.4 °C 30.49in /  1032.4hPa South 5mph /  8km/h 9mph /  14.5km/h 87% 0.00in /  0mm 77 W/m2
12:04 47.5 °F /  8.6 °C 43.9 °F /  6.6 °C 30.49in /  1032.4hPa SSW 2.5mph /  4km/h 5mph /  8km/h 87% 0.00in /  0mm 88 W/m2
12:09 47.5 °F /  8.6 °C 43.9 °F /  6.6 °C 30.49in /  1032.4hPa SSW 2.5mph /  4km/h 6mph /  9.7km/h 87% 0.00in /  0mm 65 W/m2
12:14 47.5 °F /  8.6 °C 43.9 °F /  6.6 °C 30.49in /  1032.4hPa South 5.2mph /  8.4km/h 8mph /  12.9km/h 87% 0.00in /  0mm 81 W/m2
12:19 47.5 °F /  8.6 °C 43.9 °F /  6.6 °C 30.49in /  1032.4hPa SSW 5.8mph /  9.3km/h 8mph /  12.9km/h 87% 0.00in /  0mm 86 W/m2
12:24 47.5 °F /  8.6 °C 43.9 °F /  6.6 °C 30.49in /  1032.4hPa South 4.9mph /  7.9km/h 8mph /  12.9km/h 87% 0.00in /  0mm 93 W/m2
12:29 47.5 °F /  8.6 °C 43.9 °F /  6.6 °C 30.49in /  1032.4hPa South 4.3mph /  6.9km/h 7mph /  11.3km/h 87% 0.00in /  0mm 105 W/m2
12:34 47.5 °F /  8.6 °C 43.9 °F /  6.6 °C 30.49in /  1032.4hPa SW 3.2mph /  5.1km/h 7mph /  11.3km/h 87% 0.00in /  0mm 116 W/m2
12:39 47.7 °F /  8.7 °C 44.1 °F /  6.7 °C 30.48in /  1032.1hPa SSW 4mph /  6.4km/h 8mph /  12.9km/h 87% 0.00in /  0mm 97 W/m2
12:44 47.7 °F /  8.7 °C 43.9 °F /  6.6 °C 30.48in /  1032.1hPa SSW 2.8mph /  4.5km/h 8mph /  12.9km/h 86.6% 0.00in /  0mm 90 W/m2
12:49 47.7 °F /  8.7 °C 43.9 °F /  6.6 °C 30.48in /  1032.1hPa SSW 4.4mph /  7.1km/h 8mph /  12.9km/h 86.4% 0.00in /  0mm 88 W/m2
12:54 47.8 °F /  8.8 °C 43.9 °F /  6.6 °C 30.48in /  1032.1hPa SSW 2.8mph /  4.5km/h 8mph /  12.9km/h 86.2% 0.00in /  0mm 109 W/m2
12:59 47.8 °F /  8.8 °C 43.8 °F /  6.6 °C 30.48in /  1032.1hPa SSW 5.8mph /  9.3km/h 11mph /  17.7km/h 86% 0.00in /  0mm 114 W/m2
13:04 47.7 °F /  8.7 °C 43.8 °F /  6.6 °C 30.47in /  1031.7hPa SSW 4.4mph /  7.1km/h 8mph /  12.9km/h 86% 0.00in /  0mm 93 W/m2
13:09 47.7 °F /  8.7 °C 43.7 °F /  6.5 °C 30.47in /  1031.7hPa South 5.1mph /  8.2km/h 10mph /  16.1km/h 86% 0.00in /  0mm 98 W/m2
13:14 47.5 °F /  8.6 °C 43.5 °F /  6.4 °C 30.47in /  1031.7hPa South 4.8mph /  7.7km/h 9mph /  14.5km/h 86% 0.00in /  0mm 95 W/m2
13:19 47.7 °F /  8.7 °C 43.7 °F /  6.5 °C 30.47in /  1031.7hPa South 3.6mph /  5.8km/h 9mph /  14.5km/h 86% 0.00in /  0mm 107 W/m2
13:24 47.7 °F /  8.7 °C 43.7 °F /  6.5 °C 30.47in /  1031.7hPa SSW 4.9mph /  7.9km/h 8mph /  12.9km/h 86% 0.00in /  0mm 105 W/m2
13:29 47.7 °F /  8.7 °C 43.8 °F /  6.6 °C 30.47in /  1031.7hPa SSW 5.5mph /  8.9km/h 10mph /  16.1km/h 86% 0.00in /  0mm 121 W/m2
13:34 47.8 °F /  8.8 °C 43.8 °F /  6.6 °C 30.47in /  1031.7hPa South 4.8mph /  7.7km/h 10mph /  16.1km/h 86% 0.00in /  0mm 144 W/m2
13:39 47.7 °F /  8.7 °C 43.7 °F /  6.5 °C 30.47in /  1031.7hPa South 6.4mph /  10.3km/h 9mph /  14.5km/h 86% 0.00in /  0mm 132 W/m2
13:44 47.7 °F /  8.7 °C 43.7 °F /  6.5 °C 30.47in /  1031.7hPa South 3.8mph /  6.1km/h 10mph /  16.1km/h 86% 0.00in /  0mm 134 W/m2
13:49 47.8 °F /  8.8 °C 43.9 °F /  6.6 °C 30.46in /  1031.4hPa South 3.5mph /  5.6km/h 13mph /  20.9km/h 86% 0.00in /  0mm 125 W/m2
13:54 47.8 °F /  8.8 °C 43.8 °F /  6.6 °C 30.46in /  1031.4hPa South 4mph /  6.4km/h 13mph /  20.9km/h 86% 0.00in /  0mm 118 W/m2
13:59 47.8 °F /  8.8 °C 43.9 °F /  6.6 °C 30.46in /  1031.4hPa South 3.9mph /  6.3km/h 10mph /  16.1km/h 86% 0.00in /  0mm 128 W/m2
14:04 47.8 °F /  8.8 °C 43.9 °F /  6.6 °C 30.46in /  1031.4hPa SSE 3.2mph /  5.1km/h 8mph /  12.9km/h 86% 0.00in /  0mm 100 W/m2
14:09 47.7 °F /  8.7 °C 43.8 °F /  6.6 °C 30.46in /  1031.4hPa SSW 4.3mph /  6.9km/h 9mph /  14.5km/h 86% 0.00in /  0mm 88 W/m2
14:14 47.8 °F /  8.8 °C 43.9 °F /  6.6 °C 30.46in /  1031.4hPa South 5.2mph /  8.4km/h 11mph /  17.7km/h 86% 0.00in /  0mm 81 W/m2
14:19 47.6 °F /  8.7 °C 43.6 °F /  6.4 °C 30.45in /  1031hPa SSW 2.1mph /  3.4km/h 9mph /  14.5km/h 86% 0.00in /  0mm 72 W/m2
14:24 47.6 °F /  8.7 °C 43.6 °F /  6.4 °C 30.46in /  1031.4hPa SSE 6.4mph /  10.3km/h 11mph /  17.7km/h 86% 0.00in /  0mm 72 W/m2
14:29 47.5 °F /  8.6 °C 43.5 °F /  6.4 °C 30.45in /  1031hPa SSW 4.9mph /  7.9km/h 10mph /  16.1km/h 86% 0.00in /  0mm 76 W/m2
14:34 47.5 °F /  8.6 °C 43.5 °F /  6.4 °C 30.45in /  1031hPa SSW 5mph /  8km/h 10mph /  16.1km/h 86% 0.00in /  0mm 72 W/m2
14:39 47.5 °F /  8.6 °C 43.5 °F /  6.4 °C 30.45in /  1031hPa SSW 5mph /  8km/h 11mph /  17.7km/h 86% 0.00in /  0mm 56 W/m2
14:44 47.5 °F /  8.6 °C 43.5 °F /  6.4 °C 30.45in /  1031hPa SW 4.8mph /  7.7km/h 9mph /  14.5km/h 86% 0.00in /  0mm 58 W/m2
14:49 47.6 °F /  8.7 °C 43.6 °F /  6.4 °C 30.45in /  1031hPa SSW 4.8mph /  7.7km/h 10mph /  16.1km/h 86% 0.00in /  0mm 81 W/m2
14:54 47.7 °F /  8.7 °C 43.7 °F /  6.5 °C 30.45in /  1031hPa South 4.6mph /  7.4km/h 8mph /  12.9km/h 86% 0.00in /  0mm 84 W/m2
14:59 47.7 °F /  8.7 °C 43.8 °F /  6.6 °C 30.45in /  1031hPa SSE 3.2mph /  5.1km/h 7mph /  11.3km/h 86% 0.00in /  0mm 81 W/m2
15:04 47.8 °F /  8.8 °C 43.9 °F /  6.6 °C 30.45in /  1031hPa South 2.7mph /  4.3km/h 5mph /  8km/h 86% 0.00in /  0mm 74 W/m2
15:09 48 °F /  8.9 °C 44 °F /  6.7 °C 30.45in /  1031hPa South 2mph /  3.2km/h 4mph /  6.4km/h 86% 0.00in /  0mm 81 W/m2
15:14 48 °F /  8.9 °C 44.1 °F /  6.7 °C 30.45in /  1031hPa South 2.5mph /  4km/h 5mph /  8km/h 86% 0.00in /  0mm 65 W/m2
15:19 48 °F /  8.9 °C 44.1 °F /  6.7 °C 30.45in /  1031hPa South 1.7mph /  2.7km/h 5mph /  8km/h 86% 0.00in /  0mm 56 W/m2
15:24 47.8 °F /  8.8 °C 43.9 °F /  6.6 °C 30.45in /  1031hPa SSW 2.5mph /  4km/h 7mph /  11.3km/h 86% 0.00in /  0mm 44 W/m2
15:29 47.7 °F /  8.7 °C 43.8 °F /  6.6 °C 30.45in /  1031hPa SSW 1.9mph /  3.1km/h 4mph /  6.4km/h 86% 0.00in /  0mm 42 W/m2
15:34 47.7 °F /  8.7 °C 43.7 °F /  6.5 °C 30.45in /  1031hPa SSW 1.5mph /  2.4km/h 5mph /  8km/h 86% 0.00in /  0mm 42 W/m2
15:39 47.7 °F /  8.7 °C 43.7 °F /  6.5 °C 30.45in /  1031hPa SSW 1.3mph /  2.1km/h 5mph /  8km/h 86% 0.00in /  0mm 32 W/m2
15:44 47.5 °F /  8.6 °C 43.5 °F /  6.4 °C 30.45in /  1031hPa SW 0.6mph /  1km/h 3mph /  4.8km/h 86% 0.00in /  0mm 32 W/m2
15:49 47.5 °F /  8.6 °C 43.6 °F /  6.4 °C 30.45in /  1031hPa SW 0.8mph /  1.3km/h 2mph /  3.2km/h 86.2% 0.00in /  0mm 26 W/m2
15:54 47.4 °F /  8.6 °C 43.8 °F /  6.6 °C 30.45in /  1031hPa SSE 3mph /  4.8km/h 5mph /  8km/h 87% 0.00in /  0mm 19 W/m2
15:59 47.2 °F /  8.4 °C 43.6 °F /  6.4 °C 30.45in /  1031hPa South 2.6mph /  4.2km/h 5mph /  8km/h 87% 0.00in /  0mm 12 W/m2
16:04 47.1 °F /  8.4 °C 43.5 °F /  6.4 °C 30.45in /  1031hPa South 1.7mph /  2.7km/h 4mph /  6.4km/h 87% 0.00in /  0mm 9 W/m2
16:09 46.9 °F /  8.3 °C 43.3 °F /  6.3 °C 30.45in /  1031hPa SSE 2.5mph /  4km/h 6mph /  9.7km/h 87% 0.00in /  0mm 7 W/m2
16:14 46.8 °F /  8.2 °C 43.2 °F /  6.2 °C 30.45in /  1031hPa SSE 1.2mph /  1.9km/h 3mph /  4.8km/h 87% 0.00in /  0mm 5 W/m2
16:19 46.8 °F /  8.2 °C 43.2 °F /  6.2 °C 30.45in /  1031hPa South 2.4mph /  3.9km/h 5mph /  8km/h 87% 0.00in /  0mm 0 W/m2
16:24 46.6 °F /  8.1 °C 43 °F /  6.1 °C 30.45in /  1031hPa SSE 1.3mph /  2.1km/h 5mph /  8km/h 87% 0.00in /  0mm 0 W/m2
16:29 46.6 °F /  8.1 °C 43 °F /  6.1 °C 30.45in /  1031hPa South 4.3mph /  6.9km/h 7mph /  11.3km/h 87.2% 0.00in /  0mm 0 W/m2
16:34 46.4 °F /  8 °C 43 °F /  6.1 °C 30.45in /  1031hPa SSE 2.6mph /  4.2km/h 7mph /  11.3km/h 88% 0.00in /  0mm 0 W/m2
16:39 46.4 °F /  8 °C 43 °F /  6.1 °C 30.45in /  1031hPa South 2.4mph /  3.9km/h 5mph /  8km/h 88% 0.00in /  0mm 0 W/m2
16:44 46.3 °F /  7.9 °C 42.9 °F /  6.1 °C 30.45in /  1031hPa SSW 1.6mph /  2.6km/h 3mph /  4.8km/h 88% 0.00in /  0mm 0 W/m2
16:48 46.3 °F /  7.9 °C 43 °F /  6.1 °C 30.45in /  1031hPa SSW 2mph /  3.2km/h 4mph /  6.4km/h 88% 0.00in /  0mm 0 W/m2
16:54 46.2 °F /  7.9 °C 42.8 °F /  6 °C 30.45in /  1031hPa SSW 2.6mph /  4.2km/h 4mph /  6.4km/h 88% 0.00in /  0mm 0 W/m2
16:59 46.2 °F /  7.9 °C 42.8 °F /  6 °C 30.45in /  1031hPa SW 2mph /  3.2km/h 4mph /  6.4km/h 88% 0.00in /  0mm 0 W/m2
17:04 46.2 °F /  7.9 °C 42.8 °F /  6 °C 30.45in /  1031hPa SW 4.2mph /  6.8km/h 6mph /  9.7km/h 88% 0.00in /  0mm 0 W/m2
17:09 46.2 °F /  7.9 °C 42.8 °F /  6 °C 30.45in /  1031hPa SW 2.1mph /  3.4km/h 4mph /  6.4km/h 88% 0.00in /  0mm 0 W/m2
17:14 46 °F /  7.8 °C 42.6 °F /  5.9 °C 30.45in /  1031hPa WSW 1.7mph /  2.7km/h 4mph /  6.4km/h 88% 0.00in /  0mm 0 W/m2
17:19 46 °F /  7.8 °C 42.6 °F /  5.9 °C 30.45in /  1031hPa SSW 3.8mph /  6.1km/h 6mph /  9.7km/h 88% 0.00in /  0mm 0 W/m2
17:24 46 °F /  7.8 °C 42.6 °F /  5.9 °C 30.45in /  1031hPa SW 2.6mph /  4.2km/h 6mph /  9.7km/h 88% 0.00in /  0mm 0 W/m2
17:29 45.9 °F /  7.7 °C 42.4 °F /  5.8 °C 30.45in /  1031hPa SW 4.3mph /  6.9km/h 7mph /  11.3km/h 88% 0.00in /  0mm 0 W/m2
17:34 45.9 °F /  7.7 °C 42.4 °F /  5.8 °C 30.45in /  1031hPa SSW 2.3mph /  3.7km/h 7mph /  11.3km/h 88% 0.00in /  0mm 0 W/m2
17:39 45.9 °F /  7.7 °C 42.4 °F /  5.8 °C 30.46in /  1031.4hPa South 2.2mph /  3.5km/h 4mph /  6.4km/h 88% 0.00in /  0mm 0 W/m2
17:44 45.9 °F /  7.7 °C 42.4 °F /  5.8 °C 30.46in /  1031.4hPa SW 1.7mph /  2.7km/h 4mph /  6.4km/h 88% 0.00in /  0mm 0 W/m2
17:49 45.9 °F /  7.7 °C 42.4 °F /  5.8 °C 30.45in /  1031hPa SSW 2.2mph /  3.5km/h 4mph /  6.4km/h 88% 0.00in /  0mm 0 W/m2
17:54 45.8 °F /  7.7 °C 42.4 °F /  5.8 °C 30.45in /  1031hPa SW 2.6mph /  4.2km/h 5mph /  8km/h 88% 0.00in /  0mm 0 W/m2
17:59 45.7 °F /  7.6 °C 42.3 °F /  5.7 °C 30.45in /  1031hPa SSW 3.3mph /  5.3km/h 5mph /  8km/h 88% 0.00in /  0mm 0 W/m2
18:04 45.5 °F /  7.5 °C 42.1 °F /  5.6 °C 30.45in /  1031hPa SSW 4.5mph /  7.2km/h 6mph /  9.7km/h 88% 0.00in /  0mm 0 W/m2
18:09 45.3 °F /  7.4 °C 42.3 °F /  5.7 °C 30.45in /  1031hPa SSW 3.8mph /  6.1km/h 8mph /  12.9km/h 88.8% 0.00in /  0mm 0 W/m2
18:14 45.3 °F /  7.4 °C 42.3 °F /  5.7 °C 30.45in /  1031hPa SSW 2.1mph /  3.4km/h 5mph /  8km/h 89% 0.00in /  0mm 0 W/m2
18:19 45.1 °F /  7.3 °C 42.1 °F /  5.6 °C 30.45in /  1031hPa SW 1.6mph /  2.6km/h 4mph /  6.4km/h 89% 0.00in /  0mm 0 W/m2
18:24 45.1 °F /  7.3 °C 42 °F /  5.6 °C 30.45in /  1031hPa South 0.5mph /  0.8km/h 3mph /  4.8km/h 89% 0.00in /  0mm 0 W/m2
18:29 45 °F /  7.2 °C 41.9 °F /  5.5 °C 30.45in /  1031hPa SSW 2.6mph /  4.2km/h 4mph /  6.4km/h 89% 0.00in /  0mm 0 W/m2
18:34 45 °F /  7.2 °C 41.9 °F /  5.5 °C 30.45in /  1031hPa SSW 2mph /  3.2km/h 4mph /  6.4km/h 89% 0.00in /  0mm 0 W/m2
18:39 45 °F /  7.2 °C 41.9 °F /  5.5 °C 30.45in /  1031hPa South 2.1mph /  3.4km/h 4mph /  6.4km/h 89% 0.00in /  0mm 0 W/m2
18:44 45 °F /  7.2 °C 41.9 °F /  5.5 °C 30.46in /  1031.4hPa South 4mph /  6.4km/h 9mph /  14.5km/h 89% 0.00in /  0mm 0 W/m2
18:49 44.8 °F /  7.1 °C 41.7 °F /  5.4 °C 30.45in /  1031hPa WSW 3.3mph /  5.3km/h 9mph /  14.5km/h 89% 0.00in /  0mm 0 W/m2
18:54 44.8 °F /  7.1 °C 41.7 °F /  5.4 °C 30.45in /  1031hPa WSW 3.2mph /  5.1km/h 7mph /  11.3km/h 89% 0.00in /  0mm 0 W/m2
18:59 44.8 °F /  7.1 °C 41.8 °F /  5.4 °C 30.45in /  1031hPa SW 3.6mph /  5.8km/h 8mph /  12.9km/h 89.2% 0.00in /  0mm 0 W/m2
19:04 44.8 °F /  7.1 °C 41.9 °F /  5.5 °C 30.45in /  1031hPa SW 3.9mph /  6.3km/h 6mph /  9.7km/h 89.4% 0.00in /  0mm 0 W/m2
19:08 44.8 °F /  7.1 °C 41.7 °F /  5.4 °C 30.45in /  1031hPa SW 0.7mph /  1.1km/h 5mph /  8km/h 89% 0.00in /  0mm 0 W/m2
19:14 44.8 °F /  7.1 °C 41.7 °F /  5.4 °C 30.45in /  1031hPa SSW 2mph /  3.2km/h 4mph /  6.4km/h 89% 0.00in /  0mm 0 W/m2
19:19 44.7 °F /  7.1 °C 42 °F /  5.6 °C 30.45in /  1031hPa SSW 1.9mph /  3.1km/h 4mph /  6.4km/h 90% 0.00in /  0mm 0 W/m2
19:24 44.6 °F /  7 °C 41.9 °F /  5.5 °C 30.45in /  1031hPa South 2.5mph /  4km/h 5mph /  8km/h 90% 0.00in /  0mm 0 W/m2
19:29 44.6 °F /  7 °C 41.9 °F /  5.5 °C 30.45in /  1031hPa SW 2mph /  3.2km/h 5mph /  8km/h 90% 0.00in /  0mm 0 W/m2
19:34 44.6 °F /  7 °C 41.9 °F /  5.5 °C 30.45in /  1031hPa WSW 3.2mph /  5.1km/h 6mph /  9.7km/h 90% 0.00in /  0mm 0 W/m2
19:39 44.6 °F /  7 °C 41.9 °F /  5.5 °C 30.45in /  1031hPa SW 1.2mph /  1.9km/h 6mph /  9.7km/h 90% 0.00in /  0mm 0 W/m2
19:44 44.6 °F /  7 °C 41.9 °F /  5.5 °C 30.46in /  1031.4hPa South 1.5mph /  2.4km/h 4mph /  6.4km/h 90% 0.00in /  0mm 0 W/m2
19:49 44.6 °F /  7 °C 41.9 °F /  5.5 °C 30.46in /  1031.4hPa SW 1.2mph /  1.9km/h 4mph /  6.4km/h 90% 0.00in /  0mm 0 W/m2
19:54 44.6 °F /  7 °C 41.9 °F /  5.5 °C 30.46in /  1031.4hPa SSW 2.5mph /  4km/h 4mph /  6.4km/h 90% 0.00in /  0mm 0 W/m2
19:59 44.4 °F /  6.9 °C 41.7 °F /  5.4 °C 30.45in /  1031hPa South 3.8mph /  6.1km/h 5mph /  8km/h 90% 0.00in /  0mm 0 W/m2
20:04 44.4 °F /  6.9 °C 41.7 °F /  5.4 °C 30.45in /  1031hPa South 2.4mph /  3.9km/h 6mph /  9.7km/h 90% 0.00in /  0mm 0 W/m2
20:09 44.4 °F /  6.9 °C 41.7 °F /  5.4 °C 30.45in /  1031hPa SSE 3mph /  4.8km/h 6mph /  9.7km/h 90% 0.00in /  0mm 0 W/m2
20:14 44.4 °F /  6.9 °C 41.7 °F /  5.4 °C 30.45in /  1031hPa South 2.6mph /  4.2km/h 5mph /  8km/h 90% 0.00in /  0mm 0 W/m2
20:19 44.4 °F /  6.9 °C 41.7 °F /  5.4 °C 30.45in /  1031hPa SSW 1.2mph /  1.9km/h 3mph /  4.8km/h 90% 0.00in /  0mm 0 W/m2
20:24 44.2 °F /  6.8 °C 41.5 °F /  5.3 °C 30.45in /  1031hPa SSW 0.8mph /  1.3km/h 3mph /  4.8km/h 90% 0.00in /  0mm 0 W/m2
20:28 44.2 °F /  6.8 °C 41.5 °F /  5.3 °C 30.45in /  1031hPa SSW 1mph /  1.6km/h 3mph /  4.8km/h 90% 0.00in /  0mm 0 W/m2
20:34 44.2 °F /  6.8 °C 41.5 °F /  5.3 °C 30.45in /  1031hPa South 0.9mph /  1.4km/h 3mph /  4.8km/h 90% 0.00in /  0mm 0 W/m2
20:39 44.2 °F /  6.8 °C 41.5 °F /  5.3 °C 30.45in /  1031hPa SSW 1.2mph /  1.9km/h 3mph /  4.8km/h 90% 0.00in /  0mm 0 W/m2
20:44 44.2 °F /  6.8 °C 41.5 °F /  5.3 °C 30.45in /  1031hPa SSE 0.8mph /  1.3km/h 2mph /  3.2km/h 90% 0.00in /  0mm 0 W/m2
20:49 44.2 °F /  6.8 °C 41.5 °F /  5.3 °C 30.44in /  1030.7hPa SE 0.2mph /  0.3km/h 2mph /  3.2km/h 90% 0.00in /  0mm 0 W/m2
20:53 44.2 °F /  6.8 °C 41.5 °F /  5.3 °C 30.44in /  1030.7hPa SE 0.7mph /  1.1km/h 2mph /  3.2km/h 90% 0.00in /  0mm 0 W/m2
20:59 44.2 °F /  6.8 °C 41.5 °F /  5.3 °C 30.44in /  1030.7hPa SE 1.1mph /  1.8km/h 2mph /  3.2km/h 90% 0.00in /  0mm 0 W/m2
21:04 44.2 °F /  6.8 °C 41.5 °F /  5.3 °C 30.44in /  1030.7hPa South 1.1mph /  1.8km/h 3mph /  4.8km/h 90% 0.00in /  0mm 0 W/m2
21:09 44.2 °F /  6.8 °C 41.7 °F /  5.4 °C 30.45in /  1031hPa WSW 0.8mph /  1.3km/h 4mph /  6.4km/h 90.8% 0.00in /  0mm 0 W/m2
21:14 44.2 °F /  6.8 °C 41.7 °F /  5.4 °C 30.45in /  1031hPa WSW 0.7mph /  1.1km/h 2mph /  3.2km/h 91% 0.00in /  0mm 0 W/m2
21:19 44.2 °F /  6.8 °C 41.7 °F /  5.4 °C 30.44in /  1030.7hPa SSW 1.3mph /  2.1km/h 3mph /  4.8km/h 91% 0.00in /  0mm 0 W/m2
21:24 44.4 °F /  6.9 °C 41.9 °F /  5.5 °C 30.45in /  1031hPa South 0.2mph /  0.3km/h 2mph /  3.2km/h 91% 0.00in /  0mm 0 W/m2
21:29 44.4 °F /  6.9 °C 41.9 °F /  5.5 °C 30.45in /  1031hPa SSE 1.2mph /  1.9km/h 3mph /  4.8km/h 91% 0.00in /  0mm 0 W/m2
21:34 44.4 °F /  6.9 °C 41.9 °F /  5.5 °C 30.45in /  1031hPa SSE 0.8mph /  1.3km/h 3mph /  4.8km/h 91% 0.00in /  0mm 0 W/m2
21:39 44.6 °F /  7 °C 42.1 °F /  5.6 °C 30.45in /  1031hPa SSE 0.2mph /  0.3km/h 2mph /  3.2km/h 91% 0.00in /  0mm 0 W/m2
21:44 44.6 °F /  7 °C 42.1 °F /  5.6 °C 30.45in /  1031hPa SSE 1.5mph /  2.4km/h 2mph /  3.2km/h 91% 0.00in /  0mm 0 W/m2
21:49 44.6 °F /  7 °C 42.1 °F /  5.6 °C 30.44in /  1030.7hPa SSE 2.2mph /  3.5km/h 3mph /  4.8km/h 91% 0.00in /  0mm 0 W/m2
21:54 44.6 °F /  7 °C 42.1 °F /  5.6 °C 30.44in /  1030.7hPa SSE 1.3mph /  2.1km/h 3mph /  4.8km/h 91% 0.00in /  0mm 0 W/m2
21:59 44.6 °F /  7 °C 42.1 °F /  5.6 °C 30.45in /  1031hPa SSE 0.4mph /  0.6km/h 2mph /  3.2km/h 91% 0.00in /  0mm 0 W/m2
22:04 44.6 °F /  7 °C 42.1 °F /  5.6 °C 30.44in /  1030.7hPa SSE 0.7mph /  1.1km/h 2mph /  3.2km/h 91% 0.00in /  0mm 0 W/m2
22:09 44.7 °F /  7.1 °C 42.2 °F /  5.7 °C 30.44in /  1030.7hPa SSE 0.9mph /  1.4km/h 2mph /  3.2km/h 91% 0.00in /  0mm 0 W/m2
22:14 44.6 °F /  7 °C 42.1 °F /  5.6 °C 30.44in /  1030.7hPa SSE 0.9mph /  1.4km/h 2mph /  3.2km/h 91% 0.00in /  0mm 0 W/m2
22:19 44.8 °F /  7.1 °C 42.3 °F /  5.7 °C 30.44in /  1030.7hPa South 2.6mph /  4.2km/h 5mph /  8km/h 91% 0.00in /  0mm 0 W/m2
22:24 44.8 °F /  7.1 °C 42.3 °F /  5.7 °C 30.44in /  1030.7hPa South 0.8mph /  1.3km/h 4mph /  6.4km/h 91% 0.00in /  0mm 0 W/m2
22:29 44.8 °F /  7.1 °C 42.3 °F /  5.7 °C 30.44in /  1030.7hPa South 0.9mph /  1.4km/h 3mph /  4.8km/h 91% 0.00in /  0mm 0 W/m2
22:34 44.7 °F /  7.1 °C 42.2 °F /  5.7 °C 30.44in /  1030.7hPa South 0.9mph /  1.4km/h 2mph /  3.2km/h 91% 0.00in /  0mm 0 W/m2
22:39 44.6 °F /  7 °C 42.1 °F /  5.6 °C 30.44in /  1030.7hPa South 0.2mph /  0.3km/h 2mph /  3.2km/h 91% 0.00in /  0mm 0 W/m2
22:43 44.6 °F /  7 °C 42.1 °F /  5.6 °C 30.44in /  1030.7hPa South 0.7mph /  1.1km/h 2mph /  3.2km/h 91% 0.00in /  0mm 0 W/m2
22:49 44.4 °F /  6.9 °C 41.9 °F /  5.5 °C 30.44in /  1030.7hPa South 0.4mph /  0.6km/h 2mph /  3.2km/h 91% 0.00in /  0mm 0 W/m2
22:54 44.4 °F /  6.9 °C 41.9 °F /  5.5 °C 30.44in /  1030.7hPa SSE 2mph /  3.2km/h 3mph /  4.8km/h 91% 0.00in /  0mm 0 W/m2
22:59 44.4 °F /  6.9 °C 41.9 °F /  5.5 °C 30.44in /  1030.7hPa ESE 1.9mph /  3.1km/h 3mph /  4.8km/h 91% 0.00in /  0mm 0 W/m2
23:04 44.4 °F /  6.9 °C 41.9 °F /  5.5 °C 30.44in /  1030.7hPa East 1.4mph /  2.3km/h 4mph /  6.4km/h 91% 0.00in /  0mm 0 W/m2
23:09 44.4 °F /  6.9 °C 41.9 °F /  5.5 °C 30.44in /  1030.7hPa East 1.2mph /  1.9km/h 3mph /  4.8km/h 91% 0.00in /  0mm 0 W/m2
23:13 44.5 °F /  6.9 °C 42 °F /  5.6 °C 30.44in /  1030.7hPa East 0.5mph /  0.8km/h 3mph /  4.8km/h 91% 0.00in /  0mm 0 W/m2
23:19 44.6 °F /  7 °C 42.1 °F /  5.6 °C 30.44in /  1030.7hPa East 0.5mph /  0.8km/h 3mph /  4.8km/h 91% 0.00in /  0mm 0 W/m2
23:24 44.6 °F /  7 °C 42.1 °F /  5.6 °C 30.44in /  1030.7hPa East 1.5mph /  2.4km/h 3mph /  4.8km/h 91% 0.00in /  0mm 0 W/m2
23:29 44.6 °F /  7 °C 42.3 °F /  5.7 °C 30.44in /  1030.7hPa East 0.4mph /  0.6km/h 2mph /  3.2km/h 91.6% 0.00in /  0mm 0 W/m2
23:34 44.6 °F /  7 °C 42.4 °F /  5.8 °C 30.44in /  1030.7hPa East 1.1mph /  1.8km/h 2mph /  3.2km/h 92% 0.00in /  0mm 0 W/m2
23:39 44.6 °F /  7 °C 42.4 °F /  5.8 °C 30.44in /  1030.7hPa Calm   2mph /  3.2km/h 92% 0.00in /  0mm 0 W/m2
23:44 44.6 °F /  7 °C 42.4 °F /  5.8 °C 30.44in /  1030.7hPa East 1.2mph /  1.9km/h 2mph /  3.2km/h 92% 0.00in /  0mm 0 W/m2
23:49 44.8 °F /  7.1 °C 42.6 °F /  5.9 °C 30.44in /  1030.7hPa Calm   2mph /  3.2km/h 92% 0.00in /  0mm 0 W/m2
23:54 44.8 °F /  7.1 °C 42.6 °F /  5.9 °C 30.44in /  1030.7hPa East 0.2mph /  0.3km/h 2mph /  3.2km/h 92% 0.00in /  0mm 0 W/m2
23:59 44.9 °F /  7.2 °C 42.7 °F /  5.9 °C 30.44in /  1030.7hPa SE 1.9mph /  3.1km/h 4mph /  6.4km/h 92% 0.00in /  0mm 0 W/m2
Bath Spa Weather
Compliments of Weather Underground - 2 mb